Lawton, Oklahoma
Current Conditions -  °F | °C
As of 3:58 PM on Wednesday 28 Jan 2015 (Local Time) from KFSI Reporting Station
Clear Clear  
Wind Chill: 78°   Ceiling: Unl
Heat Index: 78°   Visibility: 10mi
Dew Point: 47°   Wind: 15mph
Humidity: 34%   Direction: 200°SSW
Pressure: 29.88"   Gusts: 24mph
Location:  34.61°N, 98.39°W
Report Text: KFSI 282158Z AUTO 20013G21KT 10SM CLR 26/08 A2988 RMK AO2 SLP115 T02550084
Loading
Personal Weather Stations






























Interactive Weather Map New forecast layout! Learn more

10-Day Weather Forecast

Advertisements
Track Severe Weather on mobile